Aérodrome :
LOGIN :

S'inscrire | Disclaimer

   EN    FR    IT 

 










Légende :    VFR   VFR Marginal   IFR   IFR Intensif   IFR Très Intensif
Visi : 
Plafond : 
>= 8 km
>= 3000ft
5 à 8 km
1000 à 3000 ft
1500m à 5 km
500 à 1000 ft
800 à 1500m
200 à 500 ft
< 800m
< 200 ft
Symboles :   Orages  Brouillard  Fortes neiges  Fortes précipitations  Vent > 20 kt
SIGMETs :   Divers  Orages  Givrage  Turbulence  Onde Orograph.  Cendres Volcan.







- Altitude de l'aérodrome : 53 ft
- Code IATA : LBC


EDHL - Lübeck

DERNIER METAR :
  • 301220Z 14009KT 090V190 9999 SCT043 13/02 Q1019

METARs EXPIRÉS :
  • 301150Z 14012KT 080V200 9999 SCT041 13/02 Q1020
  • 301120Z 14009KT 100V180 9999 SCT040 12/03 Q1020
  • 301050Z 13008G19KT 080V190 9999 SCT037 12/03 Q1020
  • 301020Z 14009KT 090V190 9999 SCT035 11/03 Q1020
  • 300950Z 14009KT 080V170 9999 SCT031 11/03 Q1021

TAF TAF EDHL
Valide du 30 à 12h jusqu'au 30 à 21h UTC


301100Z 3012/3021 13011G21KT 9999 FEW040
Pas de NOTAMs connus pour ce terrain.



MET'MAP, la Météo Aéronautique d'un coup d'oeil ! - Copyright ORBIFLY Décembre 2007 - Disclaimer

ORBIFLY MET'MAP TEAM :

Programmation & Développement : Alexandra Zaïnal
Conception & Développement : Baudouin d'Aumeries
Co-Programmation & Développement : Marc-Olivier Méhu
Soutien technique & logistique : Manuel Goepfert

Contact : metmap@orbifly.com




SOURCES & CREDITS :

   NOAA